sensor_id;sensor_type;location;lat;lon;timestamp;temperature;humidity
76040;SHT30;64736;50.462;4.850;2023-07-24T00:02:16;19.43;84.00
76040;SHT30;64736;50.462;4.850;2023-07-24T00:04:44;19.41;84.14
76040;SHT30;64736;50.462;4.850;2023-07-24T00:07:10;19.41;84.13
76040;SHT30;64736;50.462;4.850;2023-07-24T00:09:36;19.41;84.16
76040;SHT30;64736;50.462;4.850;2023-07-24T00:12:02;19.33;83.78
76040;SHT30;64736;50.462;4.850;2023-07-24T00:14:27;19.37;83.87
76040;SHT30;64736;50.462;4.850;2023-07-24T00:16:53;19.43;83.65
76040;SHT30;64736;50.462;4.850;2023-07-24T00:19:19;19.41;83.43
76040;SHT30;64736;50.462;4.850;2023-07-24T00:21:44;19.43;83.49
76040;SHT30;64736;50.462;4.850;2023-07-24T00:24:10;19.47;82.99
76040;SHT30;64736;50.462;4.850;2023-07-24T00:26:36;19.47;83.10
76040;SHT30;64736;50.462;4.850;2023-07-24T00:29:02;19.40;83.12
76040;SHT30;64736;50.462;4.850;2023-07-24T00:31:27;19.47;82.96
76040;SHT30;64736;50.462;4.850;2023-07-24T00:33:53;19.49;83.22
76040;SHT30;64736;50.462;4.850;2023-07-24T00:36:19;19.43;83.22
76040;SHT30;64736;50.462;4.850;2023-07-24T00:38:44;19.43;82.77
76040;SHT30;64736;50.462;4.850;2023-07-24T00:41:10;19.43;82.65
76040;SHT30;64736;50.462;4.850;2023-07-24T00:43:36;19.44;82.80
76040;SHT30;64736;50.462;4.850;2023-07-24T00:46:02;19.33;86.35
76040;SHT30;64736;50.462;4.850;2023-07-24T00:48:28;19.16;88.76
76040;SHT30;64736;50.462;4.850;2023-07-24T00:50:54;18.91;90.54
76040;SHT30;64736;50.462;4.850;2023-07-24T00:53:21;18.59;91.80
76040;SHT30;64736;50.462;4.850;2023-07-24T00:55:47;18.26;92.73
76040;SHT30;64736;50.462;4.850;2023-07-24T00:58:13;18.14;93.85
76040;SHT30;64736;50.462;4.850;2023-07-24T01:00:39;17.89;94.85
76040;SHT30;64736;50.462;4.850;2023-07-24T01:03:05;17.70;95.44
76040;SHT30;64736;50.462;4.850;2023-07-24T01:05:31;17.56;96.11
76040;SHT30;64736;50.462;4.850;2023-07-24T01:07:57;17.45;96.56
76040;SHT30;64736;50.462;4.850;2023-07-24T01:10:23;17.45;96.84
76040;SHT30;64736;50.462;4.850;2023-07-24T01:12:58;17.38;97.23
76040;SHT30;64736;50.462;4.850;2023-07-24T01:15:38;17.31;97.36
76040;SHT30;64736;50.462;4.850;2023-07-24T01:18:11;17.34;97.58
76040;SHT30;64736;50.462;4.850;2023-07-24T01:20:51;17.31;97.78
76040;SHT30;64736;50.462;4.850;2023-07-24T01:26:14;17.27;97.97
76040;SHT30;64736;50.462;4.850;2023-07-24T01:28:40;17.24;98.07
76040;SHT30;64736;50.462;4.850;2023-07-24T01:31:05;17.25;98.15
76040;SHT30;64736;50.462;4.850;2023-07-24T01:33:31;17.25;98.17
76040;SHT30;64736;50.462;4.850;2023-07-24T01:36:00;17.21;98.19
76040;SHT30;64736;50.462;4.850;2023-07-24T01:38:27;17.25;98.20
76040;SHT30;64736;50.462;4.850;2023-07-24T01:40:54;17.22;98.19
76040;SHT30;64736;50.462;4.850;2023-07-24T01:43:20;17.15;97.96
76040;SHT30;64736;50.462;4.850;2023-07-24T01:45:46;17.25;98.19
76040;SHT30;64736;50.462;4.850;2023-07-24T01:48:11;17.28;98.21
76040;SHT30;64736;50.462;4.850;2023-07-24T01:50:37;17.25;98.17
76040;SHT30;64736;50.462;4.850;2023-07-24T01:53:03;17.25;98.19
76040;SHT30;64736;50.462;4.850;2023-07-24T01:55:28;17.25;98.20
76040;SHT30;64736;50.462;4.850;2023-07-24T01:57:54;17.28;98.14
76040;SHT30;64736;50.462;4.850;2023-07-24T02:00:20;17.32;98.16
76040;SHT30;64736;50.462;4.850;2023-07-24T02:02:46;17.31;98.11
76040;SHT30;64736;50.462;4.850;2023-07-24T02:05:12;17.27;98.04
76040;SHT30;64736;50.462;4.850;2023-07-24T02:07:38;17.31;98.07
76040;SHT30;64736;50.462;4.850;2023-07-24T02:10:04;17.28;97.86
76040;SHT30;64736;50.462;4.850;2023-07-24T02:12:29;17.30;97.95
76040;SHT30;64736;50.462;4.850;2023-07-24T02:14:55;17.28;98.08
76040;SHT30;64736;50.462;4.850;2023-07-24T02:17:23;17.28;98.09
76040;SHT30;64736;50.462;4.850;2023-07-24T02:19:48;17.21;98.17
76040;SHT30;64736;50.462;4.850;2023-07-24T02:22:15;17.28;98.30
76040;SHT30;64736;50.462;4.850;2023-07-24T02:24:40;17.31;98.38
76040;SHT30;64736;50.462;4.850;2023-07-24T02:27:06;17.30;98.41
76040;SHT30;64736;50.462;4.850;2023-07-24T02:29:32;17.14;98.25
76040;SHT30;64736;50.462;4.850;2023-07-24T02:32:00;17.24;98.40
76040;SHT30;64736;50.462;4.850;2023-07-24T02:34:25;17.18;98.30
76040;SHT30;64736;50.462;4.850;2023-07-24T02:36:53;17.18;98.36
76040;SHT30;64736;50.462;4.850;2023-07-24T02:39:19;17.30;98.48
76040;SHT30;64736;50.462;4.850;2023-07-24T02:41:47;17.13;98.26
76040;SHT30;64736;50.462;4.850;2023-07-24T02:44:13;17.20;98.37
76040;SHT30;64736;50.462;4.850;2023-07-24T02:46:39;17.13;98.39
76040;SHT30;64736;50.462;4.850;2023-07-24T02:49:04;17.11;98.28
76040;SHT30;64736;50.462;4.850;2023-07-24T02:51:31;17.14;98.29
76040;SHT30;64736;50.462;4.850;2023-07-24T02:53:57;17.24;98.43
76040;SHT30;64736;50.462;4.850;2023-07-24T02:56:23;17.18;98.39
76040;SHT30;64736;50.462;4.850;2023-07-24T02:58:48;17.13;98.34
76040;SHT30;64736;50.462;4.850;2023-07-24T03:01:14;17.15;98.29
76040;SHT30;64736;50.462;4.850;2023-07-24T03:03:41;17.20;98.35
76040;SHT30;64736;50.462;4.850;2023-07-24T03:06:07;17.21;98.31
76040;SHT30;64736;50.462;4.850;2023-07-24T03:08:33;17.22;98.29
76040;SHT30;64736;50.462;4.850;2023-07-24T03:10:59;17.18;98.16
76040;SHT30;64736;50.462;4.850;2023-07-24T03:13:25;17.18;98.11
76040;SHT30;64736;50.462;4.850;2023-07-24T03:16:00;17.17;98.11
76040;SHT30;64736;50.462;4.850;2023-07-24T03:18:26;17.17;98.12
76040;SHT30;64736;50.462;4.850;2023-07-24T03:20:52;17.15;98.02
76040;SHT30;64736;50.462;4.850;2023-07-24T03:23:17;17.11;98.00
76040;SHT30;64736;50.462;4.850;2023-07-24T03:25:43;17.08;97.67
76040;SHT30;64736;50.462;4.850;2023-07-24T03:28:09;17.13;97.85
76040;SHT30;64736;50.462;4.850;2023-07-24T03:30:35;17.03;97.73
76040;SHT30;64736;50.462;4.850;2023-07-24T03:33:01;17.02;97.80
76040;SHT30;64736;50.462;4.850;2023-07-24T03:35:27;16.95;97.72
76040;SHT30;64736;50.462;4.850;2023-07-24T03:37:53;16.95;97.79
76040;SHT30;64736;50.462;4.850;2023-07-24T03:40:19;16.95;97.86
76040;SHT30;64736;50.462;4.850;2023-07-24T03:42:45;16.84;97.79
76040;SHT30;64736;50.462;4.850;2023-07-24T03:45:10;16.87;97.86
76040;SHT30;64736;50.462;4.850;2023-07-24T03:47:36;16.84;97.85
76040;SHT30;64736;50.462;4.850;2023-07-24T03:50:02;16.84;97.89
76040;SHT30;64736;50.462;4.850;2023-07-24T03:52:28;16.81;97.84
76040;SHT30;64736;50.462;4.850;2023-07-24T03:54:54;16.79;97.86
76040;SHT30;64736;50.462;4.850;2023-07-24T03:57:19;16.87;97.85
76040;SHT30;64736;50.462;4.850;2023-07-24T03:59:45;16.88;97.86
76040;SHT30;64736;50.462;4.850;2023-07-24T04:02:11;16.86;97.63
76040;SHT30;64736;50.462;4.850;2023-07-24T04:04:37;16.90;97.52
76040;SHT30;64736;50.462;4.850;2023-07-24T04:07:04;16.90;97.28
76040;SHT30;64736;50.462;4.850;2023-07-24T04:09:30;16.94;97.43
76040;SHT30;64736;50.462;4.850;2023-07-24T04:11:56;16.94;97.05
76040;SHT30;64736;50.462;4.850;2023-07-24T04:14:21;16.95;97.11
76040;SHT30;64736;50.462;4.850;2023-07-24T04:16:47;16.94;96.99
76040;SHT30;64736;50.462;4.850;2023-07-24T04:19:13;16.94;96.84
76040;SHT30;64736;50.462;4.850;2023-07-24T04:21:39;16.95;96.69
76040;SHT30;64736;50.462;4.850;2023-07-24T04:24:04;16.94;96.37
76040;SHT30;64736;50.462;4.850;2023-07-24T04:26:30;16.95;96.41
76040;SHT30;64736;50.462;4.850;2023-07-24T04:28:56;16.99;96.17
76040;SHT30;64736;50.462;4.850;2023-07-24T04:31:22;16.97;95.93
76040;SHT30;64736;50.462;4.850;2023-07-24T04:33:48;17.03;95.96
76040;SHT30;64736;50.462;4.850;2023-07-24T04:36:13;17.03;95.61
76040;SHT30;64736;50.462;4.850;2023-07-24T04:38:39;17.06;95.55
76040;SHT30;64736;50.462;4.850;2023-07-24T04:41:05;17.11;95.38
76040;SHT30;64736;50.462;4.850;2023-07-24T04:43:31;17.17;95.48
76040;SHT30;64736;50.462;4.850;2023-07-24T04:45:56;17.17;94.83
76040;SHT30;64736;50.462;4.850;2023-07-24T04:48:22;17.22;94.81
76040;SHT30;64736;50.462;4.850;2023-07-24T04:50:54;17.20;94.78
76040;SHT30;64736;50.462;4.850;2023-07-24T04:53:20;17.22;94.39
76040;SHT30;64736;50.462;4.850;2023-07-24T04:55:46;17.30;94.13
76040;SHT30;64736;50.462;4.850;2023-07-24T04:58:12;17.41;94.07
76040;SHT30;64736;50.462;4.850;2023-07-24T05:00:38;17.42;93.70
76040;SHT30;64736;50.462;4.850;2023-07-24T05:03:04;17.42;93.64
76040;SHT30;64736;50.462;4.850;2023-07-24T05:05:31;17.42;93.37
76040;SHT30;64736;50.462;4.850;2023-07-24T05:07:57;17.43;93.54
76040;SHT30;64736;50.462;4.850;2023-07-24T05:10:23;17.43;93.14
76040;SHT30;64736;50.462;4.850;2023-07-24T05:12:49;17.46;93.46
76040;SHT30;64736;50.462;4.850;2023-07-24T05:15:14;17.49;93.61
76040;SHT30;64736;50.462;4.850;2023-07-24T05:17:43;17.39;93.26
76040;SHT30;64736;50.462;4.850;2023-07-24T05:20:09;17.45;93.24
76040;SHT30;64736;50.462;4.850;2023-07-24T05:22:35;17.46;93.37
76040;SHT30;64736;50.462;4.850;2023-07-24T05:25:01;17.42;92.96
76040;SHT30;64736;50.462;4.850;2023-07-24T05:27:27;17.39;93.05
76040;SHT30;64736;50.462;4.850;2023-07-24T05:29:52;17.43;93.22
76040;SHT30;64736;50.462;4.850;2023-07-24T05:32:18;17.41;93.24
76040;SHT30;64736;50.462;4.850;2023-07-24T05:34:44;17.43;93.02
76040;SHT30;64736;50.462;4.850;2023-07-24T05:37:09;17.42;93.21
76040;SHT30;64736;50.462;4.850;2023-07-24T05:39:35;17.45;92.96
76040;SHT30;64736;50.462;4.850;2023-07-24T05:42:01;17.46;92.97
76040;SHT30;64736;50.462;4.850;2023-07-24T05:44:28;17.45;93.53
76040;SHT30;64736;50.462;4.850;2023-07-24T05:46:53;17.43;93.98
76040;SHT30;64736;50.462;4.850;2023-07-24T05:49:19;17.39;94.07
76040;SHT30;64736;50.462;4.850;2023-07-24T05:51:44;17.34;94.11
76040;SHT30;64736;50.462;4.850;2023-07-24T05:54:10;17.42;94.63
76040;SHT30;64736;50.462;4.850;2023-07-24T05:56:36;17.32;94.77
76040;SHT30;64736;50.462;4.850;2023-07-24T05:59:01;17.22;94.77
76040;SHT30;64736;50.462;4.850;2023-07-24T06:01:27;17.24;94.98
76040;SHT30;64736;50.462;4.850;2023-07-24T06:03:53;17.22;94.81
76040;SHT30;64736;50.462;4.850;2023-07-24T06:06:19;17.24;94.02
76040;SHT30;64736;50.462;4.850;2023-07-24T06:08:44;17.27;93.98
76040;SHT30;64736;50.462;4.850;2023-07-24T06:11:13;17.30;93.84
76040;SHT30;64736;50.462;4.850;2023-07-24T06:13:39;17.34;93.74
76040;SHT30;64736;50.462;4.850;2023-07-24T06:16:04;17.36;93.85
76040;SHT30;64736;50.462;4.850;2023-07-24T06:18:34;17.36;93.12
76040;SHT30;64736;50.462;4.850;2023-07-24T06:20:59;17.38;93.16
76040;SHT30;64736;50.462;4.850;2023-07-24T06:23:25;17.35;92.51
76040;SHT30;64736;50.462;4.850;2023-07-24T06:25:51;17.38;92.95
76040;SHT30;64736;50.462;4.850;2023-07-24T06:28:17;17.38;92.29
76040;SHT30;64736;50.462;4.850;2023-07-24T06:30:43;17.46;92.48
76040;SHT30;64736;50.462;4.850;2023-07-24T06:33:09;17.56;91.95
76040;SHT30;64736;50.462;4.850;2023-07-24T06:35:35;17.63;91.48
76040;SHT30;64736;50.462;4.850;2023-07-24T06:38:00;17.73;91.00
76040;SHT30;64736;50.462;4.850;2023-07-24T06:40:26;17.79;90.58
76040;SHT30;64736;50.462;4.850;2023-07-24T06:42:52;17.93;90.13
76040;SHT30;64736;50.462;4.850;2023-07-24T06:45:18;18.00;89.83
76040;SHT30;64736;50.462;4.850;2023-07-24T06:47:44;18.10;89.52
76040;SHT30;64736;50.462;4.850;2023-07-24T06:50:10;18.16;89.10
76040;SHT30;64736;50.462;4.850;2023-07-24T06:52:36;18.24;89.05
76040;SHT30;64736;50.462;4.850;2023-07-24T06:55:02;18.28;88.77
76040;SHT30;64736;50.462;4.850;2023-07-24T06:57:27;18.34;88.85
76040;SHT30;64736;50.462;4.850;2023-07-24T06:59:53;18.45;88.85
76040;SHT30;64736;50.462;4.850;2023-07-24T07:02:19;18.40;87.83
76040;SHT30;64736;50.462;4.850;2023-07-24T07:04:45;18.47;88.61
76040;SHT30;64736;50.462;4.850;2023-07-24T07:07:10;18.61;88.19
76040;SHT30;64736;50.462;4.850;2023-07-24T07:09:36;18.61;87.78
76040;SHT30;64736;50.462;4.850;2023-07-24T07:12:02;18.68;88.14
76040;SHT30;64736;50.462;4.850;2023-07-24T07:14:28;18.79;87.32
76040;SHT30;64736;50.462;4.850;2023-07-24T07:16:54;18.99;86.99
76040;SHT30;64736;50.462;4.850;2023-07-24T07:19:19;19.03;86.41
76040;SHT30;64736;50.462;4.850;2023-07-24T07:21:45;19.07;86.82
76040;SHT30;64736;50.462;4.850;2023-07-24T07:24:11;19.09;86.51
76040;SHT30;64736;50.462;4.850;2023-07-24T07:26:37;19.10;86.01
76040;SHT30;64736;50.462;4.850;2023-07-24T07:29:02;19.16;86.50
76040;SHT30;64736;50.462;4.850;2023-07-24T07:31:28;19.19;86.51
76040;SHT30;64736;50.462;4.850;2023-07-24T07:33:54;19.30;85.88
76040;SHT30;64736;50.462;4.850;2023-07-24T07:36:19;19.14;86.24
76040;SHT30;64736;50.462;4.850;2023-07-24T07:38:47;19.06;86.12
76040;SHT30;64736;50.462;4.850;2023-07-24T07:41:13;19.10;85.70
76040;SHT30;64736;50.462;4.850;2023-07-24T07:43:39;19.14;85.78
76040;SHT30;64736;50.462;4.850;2023-07-24T07:46:04;19.19;85.33
76040;SHT30;64736;50.462;4.850;2023-07-24T07:48:30;19.40;85.40
76040;SHT30;64736;50.462;4.850;2023-07-24T07:50:58;19.46;85.17
76040;SHT30;64736;50.462;4.850;2023-07-24T07:53:23;19.37;84.67
76040;SHT30;64736;50.462;4.850;2023-07-24T07:55:56;19.31;84.77
76040;SHT30;64736;50.462;4.850;2023-07-24T07:58:25;19.41;85.71
76040;SHT30;64736;50.462;4.850;2023-07-24T08:00:51;19.43;84.87
76040;SHT30;64736;50.462;4.850;2023-07-24T08:03:17;19.61;84.17
76040;SHT30;64736;50.462;4.850;2023-07-24T08:05:46;19.67;84.02
76040;SHT30;64736;50.462;4.850;2023-07-24T08:08:11;19.70;84.42
76040;SHT30;64736;50.462;4.850;2023-07-24T08:10:38;19.81;84.15
76040;SHT30;64736;50.462;4.850;2023-07-24T08:13:03;19.79;83.97
76040;SHT30;64736;50.462;4.850;2023-07-24T08:15:37;19.75;83.74
76040;SHT30;64736;50.462;4.850;2023-07-24T08:18:04;19.61;84.29
76040;SHT30;64736;50.462;4.850;2023-07-24T08:20:30;19.65;84.62
76040;SHT30;64736;50.462;4.850;2023-07-24T08:22:56;19.64;84.33
76040;SHT30;64736;50.462;4.850;2023-07-24T08:25:22;19.62;85.03
76040;SHT30;64736;50.462;4.850;2023-07-24T08:27:47;19.58;85.24
76040;SHT30;64736;50.462;4.850;2023-07-24T08:30:13;19.53;84.65
76040;SHT30;64736;50.462;4.850;2023-07-24T08:32:39;19.46;87.32
76040;SHT30;64736;50.462;4.850;2023-07-24T08:35:05;19.33;88.81
76040;SHT30;64736;50.462;4.850;2023-07-24T08:37:31;19.02;92.31
76040;SHT30;64736;50.462;4.850;2023-07-24T08:39:57;18.92;93.33
76040;SHT30;64736;50.462;4.850;2023-07-24T08:42:23;18.85;93.74
76040;SHT30;64736;50.462;4.850;2023-07-24T08:44:51;18.76;93.82
76040;SHT30;64736;50.462;4.850;2023-07-24T08:47:18;18.93;94.72
76040;SHT30;64736;50.462;4.850;2023-07-24T08:49:46;19.05;94.32
76040;SHT30;64736;50.462;4.850;2023-07-24T08:52:12;19.43;94.16
76040;SHT30;64736;50.462;4.850;2023-07-24T08:54:38;19.53;93.86
76040;SHT30;64736;50.462;4.850;2023-07-24T08:57:07;19.57;93.90
76040;SHT30;64736;50.462;4.850;2023-07-24T08:59:34;19.20;93.46
76040;SHT30;64736;50.462;4.850;2023-07-24T09:01:59;19.06;93.87
76040;SHT30;64736;50.462;4.850;2023-07-24T09:04:26;18.76;93.80
76040;SHT30;64736;50.462;4.850;2023-07-24T09:06:52;18.58;94.47
76040;SHT30;64736;50.462;4.850;2023-07-24T09:09:18;18.58;95.00
76040;SHT30;64736;50.462;4.850;2023-07-24T09:11:49;18.68;95.00
76040;SHT30;64736;50.462;4.850;2023-07-24T09:14:23;18.64;95.42
76040;SHT30;64736;50.462;4.850;2023-07-24T09:16:49;18.69;95.65
76040;SHT30;64736;50.462;4.850;2023-07-24T09:19:19;18.71;95.41
76040;SHT30;64736;50.462;4.850;2023-07-24T09:21:45;18.72;95.10
76040;SHT30;64736;50.462;4.850;2023-07-24T09:24:12;19.10;94.72
76040;SHT30;64736;50.462;4.850;2023-07-24T09:26:48;19.58;94.41
76040;SHT30;64736;50.462;4.850;2023-07-24T09:29:14;19.67;93.42
76040;SHT30;64736;50.462;4.850;2023-07-24T09:31:40;19.85;93.20
76040;SHT30;64736;50.462;4.850;2023-07-24T09:34:17;19.71;93.24
76040;SHT30;64736;50.462;4.850;2023-07-24T09:36:43;19.75;93.60
76040;SHT30;64736;50.462;4.850;2023-07-24T09:39:10;19.99;93.31
76040;SHT30;64736;50.462;4.850;2023-07-24T09:41:38;19.99;91.50
76040;SHT30;64736;50.462;4.850;2023-07-24T09:44:05;20.16;91.44
76040;SHT30;64736;50.462;4.850;2023-07-24T09:46:30;19.85;89.77
76040;SHT30;64736;50.462;4.850;2023-07-24T09:48:57;19.92;88.91
76040;SHT30;64736;50.462;4.850;2023-07-24T09:51:23;19.92;89.65
76040;SHT30;64736;50.462;4.850;2023-07-24T09:54:01;19.91;89.03
76040;SHT30;64736;50.462;4.850;2023-07-24T09:56:34;19.81;89.83
76040;SHT30;64736;50.462;4.850;2023-07-24T09:59:02;19.74;90.90
76040;SHT30;64736;50.462;4.850;2023-07-24T10:01:28;19.61;93.23
76040;SHT30;64736;50.462;4.850;2023-07-24T10:03:55;19.40;93.66
76040;SHT30;64736;50.462;4.850;2023-07-24T10:06:21;19.40;93.79
76040;SHT30;64736;50.462;4.850;2023-07-24T10:08:48;19.65;93.49
76040;SHT30;64736;50.462;4.850;2023-07-24T10:11:14;19.61;91.47
76040;SHT30;64736;50.462;4.850;2023-07-24T10:13:41;19.96;92.04
76040;SHT30;64736;50.462;4.850;2023-07-24T10:16:07;21.25;89.91
76040;SHT30;64736;50.462;4.850;2023-07-24T10:18:35;21.93;85.49
76040;SHT30;64736;50.462;4.850;2023-07-24T10:21:04;22.14;81.99
76040;SHT30;64736;50.462;4.850;2023-07-24T10:23:34;22.65;80.02
76040;SHT30;64736;50.462;4.850;2023-07-24T10:26:03;23.28;77.85
76040;SHT30;64736;50.462;4.850;2023-07-24T10:28:34;23.51;75.70
76040;SHT30;64736;50.462;4.850;2023-07-24T10:31:06;23.51;72.61
76040;SHT30;64736;50.462;4.850;2023-07-24T10:33:44;24.21;72.34
76040;SHT30;64736;50.462;4.850;2023-07-24T10:36:10;24.50;72.06
76040;SHT30;64736;50.462;4.850;2023-07-24T10:38:40;24.92;69.21
76040;SHT30;64736;50.462;4.850;2023-07-24T10:41:08;24.00;71.02
76040;SHT30;64736;50.462;4.850;2023-07-24T10:43:45;22.34;74.49
76040;SHT30;64736;50.462;4.850;2023-07-24T10:46:12;20.41;79.48
76040;SHT30;64736;50.462;4.850;2023-07-24T10:48:45;20.49;78.70
76040;SHT30;64736;50.462;4.850;2023-07-24T10:51:11;19.24;82.15
76040;SHT30;64736;50.462;4.850;2023-07-24T10:53:46;19.24;89.95
76040;SHT30;64736;50.462;4.850;2023-07-24T10:56:13;18.57;86.14
76040;SHT30;64736;50.462;4.850;2023-07-24T10:58:38;18.38;89.13
76040;SHT30;64736;50.462;4.850;2023-07-24T11:01:05;19.13;90.81
76040;SHT30;64736;50.462;4.850;2023-07-24T11:03:31;21.69;85.21
76040;SHT30;64736;50.462;4.850;2023-07-24T11:05:58;20.88;81.21
76040;SHT30;64736;50.462;4.850;2023-07-24T11:08:24;20.47;82.95
76040;SHT30;64736;50.462;4.850;2023-07-24T11:10:50;19.47;81.35
76040;SHT30;64736;50.462;4.850;2023-07-24T11:13:18;19.26;80.56
76040;SHT30;64736;50.462;4.850;2023-07-24T11:15:44;19.16;79.45
76040;SHT30;64736;50.462;4.850;2023-07-24T11:18:10;18.85;80.74
76040;SHT30;64736;50.462;4.850;2023-07-24T11:20:43;19.47;81.07
76040;SHT30;64736;50.462;4.850;2023-07-24T11:23:10;18.31;84.30
76040;SHT30;64736;50.462;4.850;2023-07-24T11:25:37;18.18;84.33
76040;SHT30;64736;50.462;4.850;2023-07-24T11:28:05;18.89;89.20
76040;SHT30;64736;50.462;4.850;2023-07-24T11:30:31;18.64;89.12
76040;SHT30;64736;50.462;4.850;2023-07-24T11:32:59;18.16;90.48
76040;SHT30;64736;50.462;4.850;2023-07-24T11:35:27;18.49;90.79
76040;SHT30;64736;50.462;4.850;2023-07-24T11:37:52;18.43;89.85
76040;SHT30;64736;50.462;4.850;2023-07-24T11:40:18;18.65;91.85
76040;SHT30;64736;50.462;4.850;2023-07-24T11:42:47;18.44;89.12
76040;SHT30;64736;50.462;4.850;2023-07-24T11:45:14;18.21;87.48
76040;SHT30;64736;50.462;4.850;2023-07-24T11:47:48;18.49;88.16
76040;SHT30;64736;50.462;4.850;2023-07-24T11:50:15;18.38;89.45
76040;SHT30;64736;50.462;4.850;2023-07-24T11:52:43;17.96;86.25
76040;SHT30;64736;50.462;4.850;2023-07-24T11:55:11;18.20;86.33
76040;SHT30;64736;50.462;4.850;2023-07-24T11:57:37;18.07;84.62
76040;SHT30;64736;50.462;4.850;2023-07-24T12:00:04;18.38;84.53
76040;SHT30;64736;50.462;4.850;2023-07-24T12:02:32;18.51;84.61
76040;SHT30;64736;50.462;4.850;2023-07-24T12:04:59;18.51;85.86
76040;SHT30;64736;50.462;4.850;2023-07-24T12:07:33;18.48;86.03
76040;SHT30;64736;50.462;4.850;2023-07-24T12:10:04;18.92;82.20
76040;SHT30;64736;50.462;4.850;2023-07-24T12:12:44;19.60;78.85
76040;SHT30;64736;50.462;4.850;2023-07-24T12:15:11;20.66;79.10
76040;SHT30;64736;50.462;4.850;2023-07-24T12:17:37;21.81;76.71
76040;SHT30;64736;50.462;4.850;2023-07-24T12:20:04;24.09;67.73
76040;SHT30;64736;50.462;4.850;2023-07-24T12:22:32;23.08;67.73
76040;SHT30;64736;50.462;4.850;2023-07-24T12:24:57;22.01;68.27
76040;SHT30;64736;50.462;4.850;2023-07-24T12:27:24;20.70;73.76
76040;SHT30;64736;50.462;4.850;2023-07-24T12:29:51;22.20;69.65
76040;SHT30;64736;50.462;4.850;2023-07-24T12:32:17;22.87;65.93
76040;SHT30;64736;50.462;4.850;2023-07-24T12:34:46;22.38;63.77
76040;SHT30;64736;50.462;4.850;2023-07-24T12:37:12;21.15;69.47
76040;SHT30;64736;50.462;4.850;2023-07-24T12:39:38;20.74;71.67
76040;SHT30;64736;50.462;4.850;2023-07-24T12:42:05;20.63;72.99
76040;SHT30;64736;50.462;4.850;2023-07-24T12:44:30;21.09;71.66
76040;SHT30;64736;50.462;4.850;2023-07-24T12:46:56;21.54;69.20
76040;SHT30;64736;50.462;4.850;2023-07-24T12:49:22;21.52;69.00
76040;SHT30;64736;50.462;4.850;2023-07-24T12:51:47;21.50;68.91
76040;SHT30;64736;50.462;4.850;2023-07-24T12:54:13;20.08;72.59
76040;SHT30;64736;50.462;4.850;2023-07-24T12:56:40;20.74;71.06
76040;SHT30;64736;50.462;4.850;2023-07-24T12:59:06;20.88;70.22
76040;SHT30;64736;50.462;4.850;2023-07-24T13:01:32;20.60;71.38
76040;SHT30;64736;50.462;4.850;2023-07-24T13:03:58;20.92;71.29
76040;SHT30;64736;50.462;4.850;2023-07-24T13:06:24;20.94;70.61
76040;SHT30;64736;50.462;4.850;2023-07-24T13:08:50;20.99;71.24
76040;SHT30;64736;50.462;4.850;2023-07-24T13:11:16;21.15;70.08
76040;SHT30;64736;50.462;4.850;2023-07-24T13:13:41;21.36;69.05
76040;SHT30;64736;50.462;4.850;2023-07-24T13:16:07;20.91;70.16
76040;SHT30;64736;50.462;4.850;2023-07-24T13:18:33;22.31;66.50
76040;SHT30;64736;50.462;4.850;2023-07-24T13:20:59;22.44;67.28
76040;SHT30;64736;50.462;4.850;2023-07-24T13:23:24;21.96;67.57
76040;SHT30;64736;50.462;4.850;2023-07-24T13:25:52;21.73;68.82
76040;SHT30;64736;50.462;4.850;2023-07-24T13:28:19;21.38;68.91
76040;SHT30;64736;50.462;4.850;2023-07-24T13:30:46;21.14;71.44
76040;SHT30;64736;50.462;4.850;2023-07-24T13:33:11;20.74;78.79
76040;SHT30;64736;50.462;4.850;2023-07-24T13:35:37;20.08;84.07
76040;SHT30;64736;50.462;4.850;2023-07-24T13:38:03;19.82;87.79
76040;SHT30;64736;50.462;4.850;2023-07-24T13:40:29;19.51;86.31
76040;SHT30;64736;50.462;4.850;2023-07-24T13:42:54;19.74;88.35
76040;SHT30;64736;50.462;4.850;2023-07-24T13:45:20;19.88;85.17
76040;SHT30;64736;50.462;4.850;2023-07-24T13:47:46;19.60;87.21
76040;SHT30;64736;50.462;4.850;2023-07-24T13:50:12;19.30;85.40
76040;SHT30;64736;50.462;4.850;2023-07-24T13:52:38;19.68;85.50
76040;SHT30;64736;50.462;4.850;2023-07-24T13:55:04;19.95;84.81
76040;SHT30;64736;50.462;4.850;2023-07-24T13:57:30;19.85;82.82
76040;SHT30;64736;50.462;4.850;2023-07-24T13:59:55;19.88;82.43
76040;SHT30;64736;50.462;4.850;2023-07-24T14:02:21;19.93;81.60
76040;SHT30;64736;50.462;4.850;2023-07-24T14:04:47;20.18;80.86
76040;SHT30;64736;50.462;4.850;2023-07-24T14:07:13;20.28;79.48
76040;SHT30;64736;50.462;4.850;2023-07-24T14:09:39;20.92;79.77
76040;SHT30;64736;50.462;4.850;2023-07-24T14:12:05;21.77;76.63
76040;SHT30;64736;50.462;4.850;2023-07-24T14:14:31;21.32;74.47
76040;SHT30;64736;50.462;4.850;2023-07-24T14:16:57;21.36;74.92
76040;SHT30;64736;50.462;4.850;2023-07-24T14:19:23;21.24;74.75
76040;SHT30;64736;50.462;4.850;2023-07-24T14:21:50;21.24;74.87
76040;SHT30;64736;50.462;4.850;2023-07-24T14:24:16;21.01;75.33
76040;SHT30;64736;50.462;4.850;2023-07-24T14:26:41;22.86;69.51
76040;SHT30;64736;50.462;4.850;2023-07-24T14:29:07;23.33;66.83
76040;SHT30;64736;50.462;4.850;2023-07-24T14:31:33;24.29;66.55
76040;SHT30;64736;50.462;4.850;2023-07-24T14:33:58;23.58;66.97
76040;SHT30;64736;50.462;4.850;2023-07-24T14:36:24;23.51;65.63
76040;SHT30;64736;50.462;4.850;2023-07-24T14:38:52;24.27;64.37
76040;SHT30;64736;50.462;4.850;2023-07-24T14:41:17;25.22;60.31
76040;SHT30;64736;50.462;4.850;2023-07-24T14:43:43;25.44;59.37
76040;SHT30;64736;50.462;4.850;2023-07-24T14:46:09;23.45;61.93
76040;SHT30;64736;50.462;4.850;2023-07-24T14:48:34;22.83;64.06
76040;SHT30;64736;50.462;4.850;2023-07-24T14:51:00;24.56;59.38
76040;SHT30;64736;50.462;4.850;2023-07-24T14:53:26;23.35;62.01
76040;SHT30;64736;50.462;4.850;2023-07-24T14:55:51;22.86;64.95
76040;SHT30;64736;50.462;4.850;2023-07-24T14:58:17;24.14;62.00
76040;SHT30;64736;50.462;4.850;2023-07-24T15:00:43;23.24;64.38
76040;SHT30;64736;50.462;4.850;2023-07-24T15:03:09;23.06;63.07
76040;SHT30;64736;50.462;4.850;2023-07-24T15:05:34;24.33;59.62
76040;SHT30;64736;50.462;4.850;2023-07-24T15:08:00;23.51;61.12
76040;SHT30;64736;50.462;4.850;2023-07-24T15:10:26;24.16;59.71
76040;SHT30;64736;50.462;4.850;2023-07-24T15:12:52;23.54;60.95
76040;SHT30;64736;50.462;4.850;2023-07-24T15:15:18;24.46;59.44
76040;SHT30;64736;50.462;4.850;2023-07-24T15:17:43;25.37;58.15
76040;SHT30;64736;50.462;4.850;2023-07-24T15:20:09;25.04;58.50
76040;SHT30;64736;50.462;4.850;2023-07-24T15:22:37;25.04;58.34
76040;SHT30;64736;50.462;4.850;2023-07-24T15:25:03;26.38;53.70
76040;SHT30;64736;50.462;4.850;2023-07-24T15:27:30;24.40;58.90
76040;SHT30;64736;50.462;4.850;2023-07-24T15:29:56;22.63;62.49